sensor_id;sensor_type;location;lat;lon;timestamp;P1;durP1;ratioP1;P2;durP2;ratioP2
64208;SDS011;50527;52.414;13.226;2023-08-12T00:01:02;2.45;;;1.23;;
64208;SDS011;50527;52.414;13.226;2023-08-12T00:03:28;4.90;;;1.60;;
64208;SDS011;50527;52.414;13.226;2023-08-12T00:05:54;6.88;;;2.00;;
64208;SDS011;50527;52.414;13.226;2023-08-12T00:08:20;4.22;;;1.63;;
64208;SDS011;50527;52.414;13.226;2023-08-12T00:10:45;3.60;;;1.85;;
64208;SDS011;50527;52.414;13.226;2023-08-12T00:13:11;3.78;;;2.10;;
64208;SDS011;50527;52.414;13.226;2023-08-12T00:15:38;4.93;;;1.63;;
64208;SDS011;50527;52.414;13.226;2023-08-12T00:18:05;4.13;;;1.92;;
64208;SDS011;50527;52.414;13.226;2023-08-12T00:20:31;7.35;;;1.90;;
64208;SDS011;50527;52.414;13.226;2023-08-12T00:22:57;3.85;;;1.67;;
64208;SDS011;50527;52.414;13.226;2023-08-12T00:25:22;10.00;;;2.28;;
64208;SDS011;50527;52.414;13.226;2023-08-12T00:27:48;3.15;;;1.40;;
64208;SDS011;50527;52.414;13.226;2023-08-12T00:30:13;2.95;;;1.38;;
64208;SDS011;50527;52.414;13.226;2023-08-12T00:32:39;3.65;;;1.52;;
64208;SDS011;50527;52.414;13.226;2023-08-12T00:35:05;7.55;;;1.90;;
64208;SDS011;50527;52.414;13.226;2023-08-12T00:37:31;3.85;;;1.67;;
64208;SDS011;50527;52.414;13.226;2023-08-12T00:39:57;3.80;;;1.50;;
64208;SDS011;50527;52.414;13.226;2023-08-12T00:42:22;5.47;;;1.67;;
64208;SDS011;50527;52.414;13.226;2023-08-12T00:44:48;3.13;;;1.30;;
64208;SDS011;50527;52.414;13.226;2023-08-12T00:47:13;2.00;;;1.00;;
64208;SDS011;50527;52.414;13.226;2023-08-12T00:49:39;3.97;;;1.50;;
64208;SDS011;50527;52.414;13.226;2023-08-12T00:52:06;3.05;;;1.23;;
64208;SDS011;50527;52.414;13.226;2023-08-12T00:54:31;3.53;;;1.30;;
64208;SDS011;50527;52.414;13.226;2023-08-12T00:56:57;2.20;;;1.13;;
64208;SDS011;50527;52.414;13.226;2023-08-12T00:59:23;3.28;;;1.13;;
64208;SDS011;50527;52.414;13.226;2023-08-12T01:01:50;2.20;;;0.98;;
64208;SDS011;50527;52.414;13.226;2023-08-12T01:04:15;4.88;;;1.20;;
64208;SDS011;50527;52.414;13.226;2023-08-12T01:06:41;4.47;;;1.13;;
64208;SDS011;50527;52.414;13.226;2023-08-12T01:09:06;1.40;;;0.88;;
64208;SDS011;50527;52.414;13.226;2023-08-12T01:11:34;3.22;;;1.02;;
64208;SDS011;50527;52.414;13.226;2023-08-12T01:14:28;4.30;;;1.10;;
64208;SDS011;50527;52.414;13.226;2023-08-12T01:17:11;7.57;;;1.20;;
64208;SDS011;50527;52.414;13.226;2023-08-12T01:19:39;3.17;;;1.08;;
64208;SDS011;50527;52.414;13.226;2023-08-12T01:22:09;3.78;;;1.00;;
64208;SDS011;50527;52.414;13.226;2023-08-12T01:24:37;1.50;;;0.90;;
64208;SDS011;50527;52.414;13.226;2023-08-12T01:27:08;1.88;;;1.00;;
64208;SDS011;50527;52.414;13.226;2023-08-12T01:29:35;2.95;;;0.90;;
64208;SDS011;50527;52.414;13.226;2023-08-12T01:34:52;2.55;;;1.20;;
64208;SDS011;50527;52.414;13.226;2023-08-12T01:37:27;1.70;;;1.00;;
64208;SDS011;50527;52.414;13.226;2023-08-12T01:39:54;2.42;;;0.95;;
64208;SDS011;50527;52.414;13.226;2023-08-12T01:42:21;2.35;;;1.10;;
64208;SDS011;50527;52.414;13.226;2023-08-12T01:44:49;3.90;;;1.00;;
64208;SDS011;50527;52.414;13.226;2023-08-12T01:47:15;2.20;;;1.00;;
64208;SDS011;50527;52.414;13.226;2023-08-12T01:49:40;3.13;;;1.10;;
64208;SDS011;50527;52.414;13.226;2023-08-12T01:52:06;2.92;;;1.10;;
64208;SDS011;50527;52.414;13.226;2023-08-12T01:54:31;1.70;;;0.90;;
64208;SDS011;50527;52.414;13.226;2023-08-12T01:57:03;1.85;;;0.90;;
64208;SDS011;50527;52.414;13.226;2023-08-12T01:59:33;2.97;;;1.08;;
64208;SDS011;50527;52.414;13.226;2023-08-12T02:01:59;1.85;;;1.05;;
64208;SDS011;50527;52.414;13.226;2023-08-12T02:04:25;2.33;;;0.80;;
64208;SDS011;50527;52.414;13.226;2023-08-12T02:06:51;1.88;;;0.90;;
64208;SDS011;50527;52.414;13.226;2023-08-12T02:09:17;4.97;;;1.08;;
64208;SDS011;50527;52.414;13.226;2023-08-12T02:11:43;2.58;;;0.98;;
64208;SDS011;50527;52.414;13.226;2023-08-12T02:14:08;2.90;;;1.00;;
64208;SDS011;50527;52.414;13.226;2023-08-12T02:16:33;2.60;;;1.02;;
64208;SDS011;50527;52.414;13.226;2023-08-12T02:18:59;1.65;;;0.85;;
64208;SDS011;50527;52.414;13.226;2023-08-12T02:21:24;1.30;;;0.85;;
64208;SDS011;50527;52.414;13.226;2023-08-12T02:23:50;3.35;;;1.10;;
64208;SDS011;50527;52.414;13.226;2023-08-12T02:26:16;2.92;;;0.98;;
64208;SDS011;50527;52.414;13.226;2023-08-12T02:28:41;3.42;;;1.20;;
64208;SDS011;50527;52.414;13.226;2023-08-12T02:31:07;2.35;;;1.10;;
64208;SDS011;50527;52.414;13.226;2023-08-12T02:33:32;2.88;;;0.90;;
64208;SDS011;50527;52.414;13.226;2023-08-12T02:35:57;3.35;;;0.93;;
64208;SDS011;50527;52.414;13.226;2023-08-12T02:38:23;1.77;;;0.93;;
64208;SDS011;50527;52.414;13.226;2023-08-12T02:40:49;4.32;;;1.15;;
64208;SDS011;50527;52.414;13.226;2023-08-12T02:43:15;3.03;;;1.00;;
64208;SDS011;50527;52.414;13.226;2023-08-12T02:45:41;3.58;;;1.00;;
64208;SDS011;50527;52.414;13.226;2023-08-12T02:48:08;2.20;;;1.05;;
64208;SDS011;50527;52.414;13.226;2023-08-12T02:50:37;1.85;;;1.17;;
64208;SDS011;50527;52.414;13.226;2023-08-12T02:53:03;8.30;;;1.20;;
64208;SDS011;50527;52.414;13.226;2023-08-12T02:55:29;3.95;;;1.30;;
64208;SDS011;50527;52.414;13.226;2023-08-12T02:57:56;2.60;;;1.15;;
64208;SDS011;50527;52.414;13.226;2023-08-12T03:00:22;4.68;;;0.80;;
64208;SDS011;50527;52.414;13.226;2023-08-12T03:02:48;2.72;;;1.00;;
64208;SDS011;50527;52.414;13.226;2023-08-12T03:05:13;2.33;;;1.00;;
64208;SDS011;50527;52.414;13.226;2023-08-12T03:07:39;4.18;;;1.30;;
64208;SDS011;50527;52.414;13.226;2023-08-12T03:10:05;5.88;;;1.55;;
64208;SDS011;50527;52.414;13.226;2023-08-12T03:12:30;2.30;;;1.10;;
64208;SDS011;50527;52.414;13.226;2023-08-12T03:14:56;3.83;;;1.10;;
64208;SDS011;50527;52.414;13.226;2023-08-12T03:17:21;2.55;;;1.15;;
64208;SDS011;50527;52.414;13.226;2023-08-12T03:19:47;3.03;;;1.05;;
64208;SDS011;50527;52.414;13.226;2023-08-12T03:22:13;5.18;;;1.02;;
64208;SDS011;50527;52.414;13.226;2023-08-12T03:24:38;1.75;;;1.00;;
64208;SDS011;50527;52.414;13.226;2023-08-12T03:27:04;2.65;;;1.10;;
64208;SDS011;50527;52.414;13.226;2023-08-12T03:29:29;4.47;;;1.10;;
64208;SDS011;50527;52.414;13.226;2023-08-12T03:31:55;2.67;;;1.00;;
64208;SDS011;50527;52.414;13.226;2023-08-12T03:34:20;2.75;;;1.00;;
64208;SDS011;50527;52.414;13.226;2023-08-12T03:36:46;2.15;;;1.08;;
64208;SDS011;50527;52.414;13.226;2023-08-12T03:39:13;2.78;;;1.02;;
64208;SDS011;50527;52.414;13.226;2023-08-12T03:41:39;3.00;;;1.08;;
64208;SDS011;50527;52.414;13.226;2023-08-12T03:44:04;1.60;;;0.88;;
64208;SDS011;50527;52.414;13.226;2023-08-12T03:46:30;2.30;;;0.95;;
64208;SDS011;50527;52.414;13.226;2023-08-12T03:48:56;1.67;;;1.10;;
64208;SDS011;50527;52.414;13.226;2023-08-12T03:51:21;1.35;;;0.73;;
64208;SDS011;50527;52.414;13.226;2023-08-12T03:53:47;2.55;;;1.00;;
64208;SDS011;50527;52.414;13.226;2023-08-12T03:56:12;2.15;;;0.88;;
64208;SDS011;50527;52.414;13.226;2023-08-12T03:58:40;4.05;;;1.30;;
64208;SDS011;50527;52.414;13.226;2023-08-12T04:01:06;4.18;;;1.20;;
64208;SDS011;50527;52.414;13.226;2023-08-12T04:03:31;2.90;;;1.00;;
64208;SDS011;50527;52.414;13.226;2023-08-12T04:05:57;2.10;;;0.90;;
64208;SDS011;50527;52.414;13.226;2023-08-12T04:08:22;2.55;;;1.05;;
64208;SDS011;50527;52.414;13.226;2023-08-12T04:10:49;2.20;;;1.02;;
64208;SDS011;50527;52.414;13.226;2023-08-12T04:13:15;3.42;;;1.10;;
64208;SDS011;50527;52.414;13.226;2023-08-12T04:15:41;5.55;;;1.20;;
64208;SDS011;50527;52.414;13.226;2023-08-12T04:18:07;1.83;;;0.90;;
64208;SDS011;50527;52.414;13.226;2023-08-12T04:20:32;2.95;;;1.02;;
64208;SDS011;50527;52.414;13.226;2023-08-12T04:22:58;5.22;;;1.00;;
64208;SDS011;50527;52.414;13.226;2023-08-12T04:25:23;2.28;;;1.08;;
64208;SDS011;50527;52.414;13.226;2023-08-12T04:27:49;3.42;;;1.20;;
64208;SDS011;50527;52.414;13.226;2023-08-12T04:30:17;2.90;;;0.90;;
64208;SDS011;50527;52.414;13.226;2023-08-12T04:32:43;2.72;;;1.05;;
64208;SDS011;50527;52.414;13.226;2023-08-12T04:35:09;2.97;;;1.10;;
64208;SDS011;50527;52.414;13.226;2023-08-12T04:37:35;5.90;;;1.20;;
64208;SDS011;50527;52.414;13.226;2023-08-12T04:40:01;3.97;;;1.10;;
64208;SDS011;50527;52.414;13.226;2023-08-12T04:42:28;2.55;;;1.10;;
64208;SDS011;50527;52.414;13.226;2023-08-12T04:44:54;2.88;;;1.25;;
64208;SDS011;50527;52.414;13.226;2023-08-12T04:47:19;2.22;;;1.05;;
64208;SDS011;50527;52.414;13.226;2023-08-12T04:49:44;2.65;;;1.05;;
64208;SDS011;50527;52.414;13.226;2023-08-12T04:52:10;1.80;;;1.08;;
64208;SDS011;50527;52.414;13.226;2023-08-12T04:54:35;2.45;;;1.10;;
64208;SDS011;50527;52.414;13.226;2023-08-12T04:57:01;3.05;;;1.00;;
64208;SDS011;50527;52.414;13.226;2023-08-12T04:59:26;2.90;;;1.10;;
64208;SDS011;50527;52.414;13.226;2023-08-12T05:01:52;5.00;;;1.27;;
64208;SDS011;50527;52.414;13.226;2023-08-12T05:04:17;4.20;;;1.23;;
64208;SDS011;50527;52.414;13.226;2023-08-12T05:06:43;5.20;;;1.05;;
64208;SDS011;50527;52.414;13.226;2023-08-12T05:09:08;4.15;;;1.00;;
64208;SDS011;50527;52.414;13.226;2023-08-12T05:11:34;5.93;;;1.08;;
64208;SDS011;50527;52.414;13.226;2023-08-12T05:13:59;1.98;;;0.90;;
64208;SDS011;50527;52.414;13.226;2023-08-12T05:16:25;3.40;;;1.10;;
64208;SDS011;50527;52.414;13.226;2023-08-12T05:18:50;5.30;;;1.08;;
64208;SDS011;50527;52.414;13.226;2023-08-12T05:21:16;4.22;;;1.00;;
64208;SDS011;50527;52.414;13.226;2023-08-12T05:23:42;3.05;;;1.00;;
64208;SDS011;50527;52.414;13.226;2023-08-12T05:26:07;2.17;;;1.10;;
64208;SDS011;50527;52.414;13.226;2023-08-12T05:28:33;7.32;;;1.25;;
64208;SDS011;50527;52.414;13.226;2023-08-12T05:30:59;3.60;;;1.13;;
64208;SDS011;50527;52.414;13.226;2023-08-12T05:33:24;1.85;;;0.90;;
64208;SDS011;50527;52.414;13.226;2023-08-12T05:35:50;3.30;;;0.85;;
64208;SDS011;50527;52.414;13.226;2023-08-12T05:38:15;1.80;;;0.98;;
64208;SDS011;50527;52.414;13.226;2023-08-12T05:40:41;2.67;;;1.00;;
64208;SDS011;50527;52.414;13.226;2023-08-12T05:43:07;5.80;;;1.00;;
64208;SDS011;50527;52.414;13.226;2023-08-12T05:45:32;7.95;;;1.35;;
64208;SDS011;50527;52.414;13.226;2023-08-12T05:47:58;2.13;;;1.08;;
64208;SDS011;50527;52.414;13.226;2023-08-12T05:50:23;2.70;;;0.90;;
64208;SDS011;50527;52.414;13.226;2023-08-12T05:52:49;3.13;;;1.02;;
64208;SDS011;50527;52.414;13.226;2023-08-12T05:55:14;2.72;;;0.90;;
64208;SDS011;50527;52.414;13.226;2023-08-12T05:57:40;4.45;;;1.40;;
64208;SDS011;50527;52.414;13.226;2023-08-12T06:00:05;4.45;;;1.65;;
64208;SDS011;50527;52.414;13.226;2023-08-12T06:02:31;4.43;;;1.60;;
64208;SDS011;50527;52.414;13.226;2023-08-12T06:04:57;3.30;;;1.45;;
64208;SDS011;50527;52.414;13.226;2023-08-12T06:07:22;4.93;;;1.35;;
64208;SDS011;50527;52.414;13.226;2023-08-12T06:09:48;3.13;;;1.10;;
64208;SDS011;50527;52.414;13.226;2023-08-12T06:12:14;5.45;;;1.02;;
64208;SDS011;50527;52.414;13.226;2023-08-12T06:14:40;3.65;;;1.00;;
64208;SDS011;50527;52.414;13.226;2023-08-12T06:17:06;2.35;;;1.00;;
64208;SDS011;50527;52.414;13.226;2023-08-12T06:19:32;3.03;;;1.00;;
64208;SDS011;50527;52.414;13.226;2023-08-12T06:21:57;7.70;;;1.13;;
64208;SDS011;50527;52.414;13.226;2023-08-12T06:24:23;3.78;;;1.27;;
64208;SDS011;50527;52.414;13.226;2023-08-12T06:26:48;2.53;;;0.82;;
64208;SDS011;50527;52.414;13.226;2023-08-12T06:29:14;4.97;;;1.20;;
64208;SDS011;50527;52.414;13.226;2023-08-12T06:31:39;7.47;;;1.17;;
64208;SDS011;50527;52.414;13.226;2023-08-12T06:34:05;3.53;;;0.90;;
64208;SDS011;50527;52.414;13.226;2023-08-12T06:36:30;2.95;;;0.90;;
64208;SDS011;50527;52.414;13.226;2023-08-12T06:38:56;3.83;;;0.93;;
64208;SDS011;50527;52.414;13.226;2023-08-12T06:41:21;2.22;;;0.93;;
64208;SDS011;50527;52.414;13.226;2023-08-12T06:43:47;6.40;;;1.20;;
64208;SDS011;50527;52.414;13.226;2023-08-12T06:46:12;1.55;;;1.00;;
64208;SDS011;50527;52.414;13.226;2023-08-12T06:48:38;2.80;;;1.10;;
64208;SDS011;50527;52.414;13.226;2023-08-12T06:51:03;7.07;;;1.20;;
64208;SDS011;50527;52.414;13.226;2023-08-12T06:53:35;4.65;;;1.20;;
64208;SDS011;50527;52.414;13.226;2023-08-12T06:56:01;3.67;;;0.95;;
64208;SDS011;50527;52.414;13.226;2023-08-12T06:58:26;5.30;;;1.08;;
64208;SDS011;50527;52.414;13.226;2023-08-12T07:00:52;5.50;;;1.13;;
64208;SDS011;50527;52.414;13.226;2023-08-12T07:03:18;1.90;;;0.85;;
64208;SDS011;50527;52.414;13.226;2023-08-12T07:05:44;2.17;;;1.00;;
64208;SDS011;50527;52.414;13.226;2023-08-12T07:08:09;3.90;;;1.13;;
64208;SDS011;50527;52.414;13.226;2023-08-12T07:10:37;4.55;;;1.10;;
64208;SDS011;50527;52.414;13.226;2023-08-12T07:13:03;2.92;;;1.05;;
64208;SDS011;50527;52.414;13.226;2023-08-12T07:15:29;2.28;;;1.05;;
64208;SDS011;50527;52.414;13.226;2023-08-12T07:17:54;2.42;;;0.90;;
64208;SDS011;50527;52.414;13.226;2023-08-12T07:20:20;2.65;;;1.13;;
64208;SDS011;50527;52.414;13.226;2023-08-12T07:22:46;2.50;;;1.20;;
64208;SDS011;50527;52.414;13.226;2023-08-12T07:25:11;2.42;;;0.88;;
64208;SDS011;50527;52.414;13.226;2023-08-12T07:27:37;2.75;;;1.20;;
64208;SDS011;50527;52.414;13.226;2023-08-12T07:30:02;7.10;;;1.08;;
64208;SDS011;50527;52.414;13.226;2023-08-12T07:32:28;4.22;;;1.23;;
64208;SDS011;50527;52.414;13.226;2023-08-12T07:34:54;3.78;;;1.08;;
64208;SDS011;50527;52.414;13.226;2023-08-12T07:37:19;2.25;;;0.95;;
64208;SDS011;50527;52.414;13.226;2023-08-12T07:39:45;2.03;;;1.20;;
64208;SDS011;50527;52.414;13.226;2023-08-12T07:42:10;3.05;;;1.08;;
64208;SDS011;50527;52.414;13.226;2023-08-12T07:44:36;3.47;;;1.10;;
64208;SDS011;50527;52.414;13.226;2023-08-12T07:47:01;3.25;;;1.13;;
64208;SDS011;50527;52.414;13.226;2023-08-12T07:49:27;2.45;;;1.10;;
64208;SDS011;50527;52.414;13.226;2023-08-12T07:51:52;4.88;;;1.38;;
64208;SDS011;50527;52.414;13.226;2023-08-12T07:54:18;4.47;;;1.20;;
64208;SDS011;50527;52.414;13.226;2023-08-12T07:56:43;2.45;;;1.15;;
64208;SDS011;50527;52.414;13.226;2023-08-12T07:59:09;6.35;;;1.20;;
64208;SDS011;50527;52.414;13.226;2023-08-12T08:01:35;6.40;;;1.40;;
64208;SDS011;50527;52.414;13.226;2023-08-12T08:04:00;3.78;;;1.50;;
64208;SDS011;50527;52.414;13.226;2023-08-12T08:06:26;4.20;;;1.30;;
64208;SDS011;50527;52.414;13.226;2023-08-12T08:08:53;7.05;;;1.38;;
64208;SDS011;50527;52.414;13.226;2023-08-12T08:11:20;2.60;;;1.10;;
64208;SDS011;50527;52.414;13.226;2023-08-12T08:13:46;6.85;;;1.40;;
64208;SDS011;50527;52.414;13.226;2023-08-12T08:16:11;3.08;;;1.20;;
64208;SDS011;50527;52.414;13.226;2023-08-12T08:18:37;7.72;;;1.65;;
64208;SDS011;50527;52.414;13.226;2023-08-12T08:21:02;3.10;;;1.15;;
64208;SDS011;50527;52.414;13.226;2023-08-12T08:23:28;5.70;;;1.30;;
64208;SDS011;50527;52.414;13.226;2023-08-12T08:25:54;4.88;;;1.10;;
64208;SDS011;50527;52.414;13.226;2023-08-12T08:28:19;2.55;;;1.13;;
64208;SDS011;50527;52.414;13.226;2023-08-12T08:30:45;6.80;;;1.10;;
64208;SDS011;50527;52.414;13.226;2023-08-12T08:33:10;5.13;;;1.20;;
64208;SDS011;50527;52.414;13.226;2023-08-12T08:35:35;3.33;;;1.20;;
64208;SDS011;50527;52.414;13.226;2023-08-12T08:38:01;4.63;;;1.08;;
64208;SDS011;50527;52.414;13.226;2023-08-12T08:40:26;2.35;;;1.20;;
64208;SDS011;50527;52.414;13.226;2023-08-12T08:42:52;2.10;;;1.00;;
64208;SDS011;50527;52.414;13.226;2023-08-12T08:45:18;2.17;;;1.10;;
64208;SDS011;50527;52.414;13.226;2023-08-12T08:47:47;3.28;;;1.02;;
64208;SDS011;50527;52.414;13.226;2023-08-12T08:50:13;5.68;;;1.02;;
64208;SDS011;50527;52.414;13.226;2023-08-12T08:52:39;3.33;;;1.13;;
64208;SDS011;50527;52.414;13.226;2023-08-12T08:55:05;1.95;;;1.20;;
64208;SDS011;50527;52.414;13.226;2023-08-12T08:57:31;3.47;;;1.20;;
64208;SDS011;50527;52.414;13.226;2023-08-12T08:59:57;3.90;;;1.67;;
64208;SDS011;50527;52.414;13.226;2023-08-12T09:02:22;4.70;;;1.30;;
64208;SDS011;50527;52.414;13.226;2023-08-12T09:04:48;4.20;;;1.17;;
64208;SDS011;50527;52.414;13.226;2023-08-12T09:07:15;2.78;;;1.33;;
64208;SDS011;50527;52.414;13.226;2023-08-12T09:09:45;9.85;;;1.50;;
64208;SDS011;50527;52.414;13.226;2023-08-12T09:12:14;4.32;;;1.27;;
64208;SDS011;50527;52.414;13.226;2023-08-12T09:14:40;5.70;;;1.30;;
64208;SDS011;50527;52.414;13.226;2023-08-12T09:17:09;4.15;;;1.30;;
64208;SDS011;50527;52.414;13.226;2023-08-12T09:19:35;4.38;;;1.30;;
64208;SDS011;50527;52.414;13.226;2023-08-12T09:22:02;3.10;;;1.55;;
64208;SDS011;50527;52.414;13.226;2023-08-12T09:24:29;1.70;;;1.10;;
64208;SDS011;50527;52.414;13.226;2023-08-12T09:26:55;4.43;;;1.38;;
64208;SDS011;50527;52.414;13.226;2023-08-12T09:29:31;4.65;;;1.30;;
64208;SDS011;50527;52.414;13.226;2023-08-12T09:32:11;6.88;;;1.50;;
64208;SDS011;50527;52.414;13.226;2023-08-12T09:34:37;3.65;;;1.42;;
64208;SDS011;50527;52.414;13.226;2023-08-12T09:37:02;4.30;;;1.40;;
64208;SDS011;50527;52.414;13.226;2023-08-12T09:39:28;2.47;;;1.33;;
64208;SDS011;50527;52.414;13.226;2023-08-12T09:41:57;2.28;;;1.40;;
64208;SDS011;50527;52.414;13.226;2023-08-12T09:44:23;4.95;;;1.90;;
64208;SDS011;50527;52.414;13.226;2023-08-12T09:46:48;7.60;;;1.42;;
64208;SDS011;50527;52.414;13.226;2023-08-12T09:49:20;2.45;;;1.20;;
64208;SDS011;50527;52.414;13.226;2023-08-12T09:51:46;2.70;;;1.17;;
64208;SDS011;50527;52.414;13.226;2023-08-12T09:54:11;5.28;;;1.17;;
64208;SDS011;50527;52.414;13.226;2023-08-12T09:56:37;3.97;;;1.20;;
64208;SDS011;50527;52.414;13.226;2023-08-12T09:59:05;7.07;;;1.70;;
64208;SDS011;50527;52.414;13.226;2023-08-12T10:01:34;4.57;;;1.30;;
64208;SDS011;50527;52.414;13.226;2023-08-12T10:04:01;3.42;;;1.40;;
64208;SDS011;50527;52.414;13.226;2023-08-12T10:06:30;3.08;;;1.38;;
64208;SDS011;50527;52.414;13.226;2023-08-12T10:08:56;2.10;;;1.17;;
64208;SDS011;50527;52.414;13.226;2023-08-12T10:11:22;3.85;;;1.33;;
64208;SDS011;50527;52.414;13.226;2023-08-12T10:13:48;3.10;;;1.35;;
64208;SDS011;50527;52.414;13.226;2023-08-12T10:16:13;3.10;;;1.20;;
64208;SDS011;50527;52.414;13.226;2023-08-12T10:18:39;5.72;;;1.60;;
64208;SDS011;50527;52.414;13.226;2023-08-12T10:21:06;2.58;;;1.23;;
64208;SDS011;50527;52.414;13.226;2023-08-12T10:23:34;5.53;;;1.63;;
64208;SDS011;50527;52.414;13.226;2023-08-12T10:26:01;2.90;;;1.20;;
64208;SDS011;50527;52.414;13.226;2023-08-12T10:28:29;7.85;;;1.35;;
64208;SDS011;50527;52.414;13.226;2023-08-12T10:30:56;3.03;;;1.30;;
64208;SDS011;50527;52.414;13.226;2023-08-12T10:33:22;1.85;;;1.20;;
64208;SDS011;50527;52.414;13.226;2023-08-12T10:35:48;2.92;;;1.20;;
64208;SDS011;50527;52.414;13.226;2023-08-12T10:38:18;1.70;;;1.00;;
64208;SDS011;50527;52.414;13.226;2023-08-12T10:40:45;3.95;;;1.25;;
64208;SDS011;50527;52.414;13.226;2023-08-12T10:43:12;1.67;;;1.00;;
64208;SDS011;50527;52.414;13.226;2023-08-12T10:45:42;4.05;;;1.33;;
64208;SDS011;50527;52.414;13.226;2023-08-12T10:48:23;4.80;;;1.13;;
64208;SDS011;50527;52.414;13.226;2023-08-12T10:50:53;4.15;;;1.10;;
64208;SDS011;50527;52.414;13.226;2023-08-12T10:55:57;2.95;;;1.10;;
64208;SDS011;50527;52.414;13.226;2023-08-12T10:58:24;1.75;;;1.00;;
64208;SDS011;50527;52.414;13.226;2023-08-12T11:00:54;2.55;;;1.10;;
64208;SDS011;50527;52.414;13.226;2023-08-12T11:03:20;2.63;;;1.05;;
64208;SDS011;50527;52.414;13.226;2023-08-12T11:06:14;2.30;;;1.00;;
64208;SDS011;50527;52.414;13.226;2023-08-12T11:08:46;2.85;;;1.48;;
64208;SDS011;50527;52.414;13.226;2023-08-12T11:11:20;2.45;;;1.20;;
64208;SDS011;50527;52.414;13.226;2023-08-12T11:13:58;4.68;;;1.00;;
64208;SDS011;50527;52.414;13.226;2023-08-12T11:16:36;2.08;;;1.00;;
64208;SDS011;50527;52.414;13.226;2023-08-12T11:19:02;1.85;;;1.00;;
64208;SDS011;50527;52.414;13.226;2023-08-12T11:21:28;2.08;;;0.98;;
64208;SDS011;50527;52.414;13.226;2023-08-12T11:23:54;3.25;;;1.10;;
64208;SDS011;50527;52.414;13.226;2023-08-12T11:26:20;1.65;;;0.90;;
64208;SDS011;50527;52.414;13.226;2023-08-12T11:28:48;1.58;;;0.98;;
64208;SDS011;50527;52.414;13.226;2023-08-12T11:31:14;6.35;;;1.23;;
64208;SDS011;50527;52.414;13.226;2023-08-12T11:33:40;2.92;;;1.00;;
64208;SDS011;50527;52.414;13.226;2023-08-12T11:36:05;2.95;;;1.33;;
64208;SDS011;50527;52.414;13.226;2023-08-12T11:38:31;3.40;;;1.10;;
64208;SDS011;50527;52.414;13.226;2023-08-12T11:40:57;2.78;;;1.00;;
64208;SDS011;50527;52.414;13.226;2023-08-12T11:43:26;2.30;;;1.20;;
64208;SDS011;50527;52.414;13.226;2023-08-12T11:45:51;4.95;;;1.10;;
64208;SDS011;50527;52.414;13.226;2023-08-12T11:48:19;2.33;;;1.00;;
64208;SDS011;50527;52.414;13.226;2023-08-12T11:50:45;2.15;;;1.20;;
64208;SDS011;50527;52.414;13.226;2023-08-12T11:53:11;2.83;;;1.00;;
64208;SDS011;50527;52.414;13.226;2023-08-12T11:55:37;2.55;;;1.10;;
64208;SDS011;50527;52.414;13.226;2023-08-12T11:58:02;2.17;;;1.27;;
64208;SDS011;50527;52.414;13.226;2023-08-12T12:00:28;2.03;;;1.10;;
64208;SDS011;50527;52.414;13.226;2023-08-12T12:02:54;2.33;;;1.20;;
64208;SDS011;50527;52.414;13.226;2023-08-12T12:05:22;1.83;;;1.10;;
64208;SDS011;50527;52.414;13.226;2023-08-12T12:07:48;1.95;;;1.10;;
64208;SDS011;50527;52.414;13.226;2023-08-12T12:10:18;4.53;;;1.00;;
64208;SDS011;50527;52.414;13.226;2023-08-12T12:12:44;2.33;;;1.20;;
64208;SDS011;50527;52.414;13.226;2023-08-12T12:15:12;3.63;;;1.20;;
64208;SDS011;50527;52.414;13.226;2023-08-12T12:17:38;4.00;;;1.20;;
64208;SDS011;50527;52.414;13.226;2023-08-12T12:20:05;2.72;;;1.20;;
64208;SDS011;50527;52.414;13.226;2023-08-12T12:22:32;1.70;;;1.00;;
64208;SDS011;50527;52.414;13.226;2023-08-12T12:24:58;5.60;;;1.10;;
64208;SDS011;50527;52.414;13.226;2023-08-12T12:27:26;4.30;;;1.08;;
64208;SDS011;50527;52.414;13.226;2023-08-12T12:29:52;3.90;;;1.20;;
64208;SDS011;50527;52.414;13.226;2023-08-12T12:32:18;2.70;;;1.10;;
64208;SDS011;50527;52.414;13.226;2023-08-12T12:34:44;4.13;;;1.08;;
64208;SDS011;50527;52.414;13.226;2023-08-12T12:37:11;1.27;;;1.00;;
64208;SDS011;50527;52.414;13.226;2023-08-12T12:39:37;3.38;;;1.20;;
64208;SDS011;50527;52.414;13.226;2023-08-12T12:42:03;2.03;;;1.00;;
64208;SDS011;50527;52.414;13.226;2023-08-12T12:44:28;2.42;;;1.20;;
64208;SDS011;50527;52.414;13.226;2023-08-12T12:46:54;2.45;;;1.00;;
64208;SDS011;50527;52.414;13.226;2023-08-12T12:49:19;1.95;;;1.05;;
64208;SDS011;50527;52.414;13.226;2023-08-12T12:51:45;1.90;;;0.90;;
64208;SDS011;50527;52.414;13.226;2023-08-12T12:56:45;2.70;;;1.00;;
64208;SDS011;50527;52.414;13.226;2023-08-12T12:59:11;3.05;;;0.90;;
64208;SDS011;50527;52.414;13.226;2023-08-12T13:01:37;1.80;;;0.90;;
64208;SDS011;50527;52.414;13.226;2023-08-12T13:04:02;3.72;;;1.00;;
64208;SDS011;50527;52.414;13.226;2023-08-12T13:06:28;4.57;;;0.98;;
64208;SDS011;50527;52.414;13.226;2023-08-12T13:08:54;4.70;;;1.00;;
64208;SDS011;50527;52.414;13.226;2023-08-12T13:11:19;2.20;;;1.00;;
64208;SDS011;50527;52.414;13.226;2023-08-12T13:13:44;2.78;;;1.00;;
64208;SDS011;50527;52.414;13.226;2023-08-12T13:16:10;2.45;;;1.02;;
64208;SDS011;50527;52.414;13.226;2023-08-12T13:18:35;11.48;;;1.70;;
64208;SDS011;50527;52.414;13.226;2023-08-12T13:21:01;3.55;;;1.13;;
64208;SDS011;50527;52.414;13.226;2023-08-12T13:23:26;2.10;;;0.95;;
64208;SDS011;50527;52.414;13.226;2023-08-12T13:25:52;2.30;;;1.10;;
64208;SDS011;50527;52.414;13.226;2023-08-12T13:28:17;2.97;;;1.13;;
64208;SDS011;50527;52.414;13.226;2023-08-12T13:30:43;2.88;;;1.30;;
64208;SDS011;50527;52.414;13.226;2023-08-12T13:33:10;2.28;;;1.00;;
64208;SDS011;50527;52.414;13.226;2023-08-12T13:35:36;1.92;;;0.90;;
64208;SDS011;50527;52.414;13.226;2023-08-12T13:38:01;2.45;;;0.93;;
64208;SDS011;50527;52.414;13.226;2023-08-12T13:40:27;1.52;;;0.90;;
64208;SDS011;50527;52.414;13.226;2023-08-12T13:42:53;4.38;;;0.95;;
64208;SDS011;50527;52.414;13.226;2023-08-12T13:45:18;3.05;;;0.90;;
64208;SDS011;50527;52.414;13.226;2023-08-12T13:47:44;2.08;;;1.00;;
64208;SDS011;50527;52.414;13.226;2023-08-12T13:50:10;1.58;;;1.00;;
64208;SDS011;50527;52.414;13.226;2023-08-12T13:52:35;1.40;;;0.80;;
64208;SDS011;50527;52.414;13.226;2023-08-12T13:55:01;4.32;;;0.90;;
64208;SDS011;50527;52.414;13.226;2023-08-12T13:57:27;1.92;;;0.80;;
64208;SDS011;50527;52.414;13.226;2023-08-12T13:59:52;1.27;;;0.95;;
64208;SDS011;50527;52.414;13.226;2023-08-12T14:02:18;3.25;;;1.20;;
64208;SDS011;50527;52.414;13.226;2023-08-12T14:04:43;1.67;;;0.90;;
64208;SDS011;50527;52.414;13.226;2023-08-12T14:07:09;1.00;;;0.70;;
64208;SDS011;50527;52.414;13.226;2023-08-12T14:09:34;1.08;;;0.70;;
64208;SDS011;50527;52.414;13.226;2023-08-12T14:12:00;1.67;;;0.80;;
64208;SDS011;50527;52.414;13.226;2023-08-12T14:14:25;1.38;;;0.73;;
64208;SDS011;50527;52.414;13.226;2023-08-12T14:16:54;2.70;;;0.82;;
64208;SDS011;50527;52.414;13.226;2023-08-12T14:19:19;1.77;;;0.80;;
64208;SDS011;50527;52.414;13.226;2023-08-12T14:21:45;2.55;;;0.90;;
64208;SDS011;50527;52.414;13.226;2023-08-12T14:24:10;1.35;;;0.70;;
64208;SDS011;50527;52.414;13.226;2023-08-12T14:26:38;2.58;;;0.90;;
64208;SDS011;50527;52.414;13.226;2023-08-12T14:29:03;1.23;;;0.60;;
64208;SDS011;50527;52.414;13.226;2023-08-12T14:31:29;1.25;;;0.80;;
64208;SDS011;50527;52.414;13.226;2023-08-12T14:33:54;8.80;;;0.80;;
64208;SDS011;50527;52.414;13.226;2023-08-12T14:36:20;4.78;;;0.70;;